Time;durP1;ratioP1;P1;durP2;ratioP2;P2;SDS_P1;SDS_P2;PMS_P1;PMS_P2;Temp;Humidity;BMP_temperature;BMP_pressure;BME280_temperature;BME280_humidity;BME280_pressure;Samples;Min_cycle;Max_cycle;Signal;HPM_P1;HPM_P2
2021/01/15 00:00:48;;;;;;;8.75;6.00;;;3.50;99.90;;;;;;5055447;28;20188;-45
2021/01/15 00:03:15;;;;;;;8.57;6.30;;;3.50;99.90;;;;;;5054873;28;20585;-45
2021/01/15 00:05:42;;;;;;;10.52;7.10;;;3.50;99.90;;;;;;5055213;28;20651;-45
2021/01/15 00:08:08;;;;;;;10.25;6.88;;;3.70;99.90;;;;;;5055570;28;20204;-46
2021/01/15 00:10:35;;;;;;;11.30;7.88;;;3.30;99.90;;;;;;5053982;28;20200;-46
2021/01/15 00:13:01;;;;;;;9.05;6.32;;;3.20;99.90;;;;;;5055951;28;20238;-45
2021/01/15 00:15:28;;;;;;;8.25;5.50;;;3.30;99.90;;;;;;5056492;28;20204;-47
2021/01/15 00:17:54;;;;;;;8.27;5.97;;;3.20;99.90;;;;;;5056073;28;20219;-45
2021/01/15 00:20:22;;;;;;;8.05;6.05;;;3.50;99.90;;;;;;5056181;28;20208;-45
2021/01/15 00:22:48;;;;;;;10.38;6.80;;;3.20;99.90;;;;;;5056025;28;20211;-45
2021/01/15 00:25:15;;;;;;;7.97;5.57;;;3.00;99.90;;;;;;5056703;28;20289;-46
2021/01/15 00:27:42;;;;;;;10.88;6.00;;;3.50;99.90;;;;;;5055248;28;20558;-45
2021/01/15 00:30:10;;;;;;;9.88;6.50;;;3.30;99.90;;;;;;5056051;28;20200;-46
2021/01/15 00:32:37;;;;;;;8.32;6.78;;;3.30;99.90;;;;;;5055389;28;20203;-46
2021/01/15 00:35:06;;;;;;;9.85;7.40;;;3.30;99.90;;;;;;5056973;28;20227;-45
2021/01/15 00:37:33;;;;;;;10.45;7.30;;;3.30;99.90;;;;;;5058895;28;20302;-46
2021/01/15 00:40:00;;;;;;;11.13;6.53;;;3.70;99.90;;;;;;5058469;28;20204;-45
2021/01/15 00:42:27;;;;;;;10.02;6.32;;;3.70;99.90;;;;;;5056974;28;20676;-45
2021/01/15 00:44:55;;;;;;;8.52;6.55;;;3.40;99.90;;;;;;5055585;28;20225;-46
2021/01/15 00:47:22;;;;;;;8.60;6.50;;;3.60;99.90;;;;;;5056366;28;20227;-46
2021/01/15 00:49:49;;;;;;;11.77;6.63;;;3.50;99.90;;;;;;5058216;28;20223;-46
2021/01/15 00:52:16;;;;;;;10.15;7.72;;;3.00;99.90;;;;;;5057247;28;20668;-46
2021/01/15 00:54:44;;;;;;;10.63;7.05;;;3.70;99.90;;;;;;5056883;28;20266;-47
2021/01/15 00:57:10;;;;;;;8.15;6.50;;;3.10;99.90;;;;;;5057989;28;20299;-46
2021/01/15 00:59:37;;;;;;;8.90;6.47;;;3.20;99.90;;;;;;5055903;28;20286;-45
2021/01/15 01:02:17;;;;;;;9.25;6.22;;;3.50;99.90;;;;;;5056540;28;20292;-45
2021/01/15 01:04:43;;;;;;;8.95;6.50;;;3.40;99.90;;;;;;5057987;28;20212;-45
2021/01/15 01:07:10;;;;;;;10.40;8.07;;;3.10;99.90;;;;;;5058729;28;20311;-45
2021/01/15 01:09:36;;;;;;;9.38;6.60;;;3.10;99.90;;;;;;5059194;28;20203;-46
2021/01/15 01:12:06;;;;;;;11.25;7.43;;;3.00;99.90;;;;;;5059027;28;20216;-45
2021/01/15 01:14:33;;;;;;;10.30;6.90;;;3.00;99.90;;;;;;5058207;28;20270;-45
2021/01/15 01:16:59;;;;;;;13.25;6.93;;;3.30;99.90;;;;;;5058388;28;20223;-45
2021/01/15 01:19:26;;;;;;;10.02;6.82;;;3.40;99.90;;;;;;5057777;28;20648;-46
2021/01/15 01:21:52;;;;;;;11.23;7.35;;;3.40;99.90;;;;;;5058651;28;20250;-46
2021/01/15 01:24:19;;;;;;;9.30;6.55;;;3.30;99.90;;;;;;5057561;28;20231;-45
2021/01/15 01:26:45;;;;;;;7.10;6.25;;;3.30;99.90;;;;;;5057872;28;20224;-44
2021/01/15 01:29:13;;;;;;;12.00;7.78;;;3.00;99.90;;;;;;5057341;28;20192;-45
2021/01/15 01:31:39;;;;;;;9.40;6.78;;;3.10;99.90;;;;;;5053539;28;20284;-45
2021/01/15 01:34:06;;;;;;;9.07;6.80;;;3.10;99.90;;;;;;5053092;28;20188;-45
2021/01/15 01:36:33;;;;;;;9.02;6.35;;;3.30;99.90;;;;;;5053639;28;20728;-45
2021/01/15 01:39:00;;;;;;;10.63;7.15;;;3.40;99.90;;;;;;5056043;28;20196;-46
2021/01/15 01:41:26;;;;;;;11.23;7.00;;;3.40;99.90;;;;;;5058257;28;20688;-46
2021/01/15 01:43:53;;;;;;;10.27;6.88;;;3.10;99.90;;;;;;5056723;28;20219;-46
2021/01/15 01:46:22;;;;;;;10.95;7.40;;;3.00;99.90;;;;;;5057539;28;20267;-45
2021/01/15 01:48:48;;;;;;;11.02;7.97;;;3.00;99.90;;;;;;5053278;28;20222;-45
2021/01/15 01:51:18;;;;;;;7.68;6.55;;;3.50;99.90;;;;;;5052885;28;20216;-46
2021/01/15 01:53:45;;;;;;;12.02;7.22;;;3.30;99.90;;;;;;5052476;28;20201;-46
2021/01/15 01:56:12;;;;;;;11.35;6.80;;;3.20;99.90;;;;;;5052749;28;20212;-47
2021/01/15 01:58:39;;;;;;;11.20;7.93;;;3.20;99.90;;;;;;5052651;28;20372;-46
2021/01/15 02:01:06;;;;;;;10.40;7.15;;;3.00;99.90;;;;;;5052900;28;20215;-46
2021/01/15 02:03:34;;;;;;;9.00;7.35;;;3.10;99.90;;;;;;5052239;28;20208;-45
2021/01/15 02:06:01;;;;;;;12.32;8.20;;;2.80;99.90;;;;;;5052515;28;20277;-46
2021/01/15 02:08:28;;;;;;;9.25;7.18;;;3.30;99.90;;;;;;5052618;28;20560;-46
2021/01/15 02:11:04;;;;;;;10.13;6.97;;;3.10;99.90;;;;;;5052515;28;20192;-46
2021/01/15 02:13:36;;;;;;;12.20;7.88;;;3.00;99.90;;;;;;5052200;28;20606;-46
2021/01/15 02:16:06;;;;;;;12.35;7.50;;;2.60;99.90;;;;;;5052361;28;20220;-46
2021/01/15 02:18:38;;;;;;;12.50;7.57;;;3.00;99.90;;;;;;5051116;28;20208;-46
2021/01/15 02:21:41;;;;;;;9.70;7.65;;;3.20;99.90;;;;;;5052376;28;20192;-46
2021/01/15 02:24:17;;;;;;;9.13;7.60;;;2.90;99.90;;;;;;5051688;28;20274;-46
2021/01/15 02:27:07;;;;;;;10.77;7.88;;;3.30;99.90;;;;;;5052178;28;20220;-46
2021/01/15 02:29:34;;;;;;;9.90;7.60;;;2.70;99.90;;;;;;5052320;28;20231;-45
2021/01/15 02:32:27;;;;;;;7.90;6.45;;;2.80;99.90;;;;;;5052372;28;20192;-47
2021/01/15 02:35:07;;;;;;;10.00;7.65;;;3.00;99.90;;;;;;5052507;28;20203;-45
2021/01/15 02:37:49;;;;;;;10.55;8.05;;;3.20;99.90;;;;;;5053424;28;20212;-45
2021/01/15 02:40:20;;;;;;;13.30;7.57;;;3.00;99.90;;;;;;5052114;28;20679;-46
2021/01/15 02:42:50;;;;;;;16.48;8.30;;;2.80;99.90;;;;;;5051437;28;20215;-46
2021/01/15 02:45:17;;;;;;;13.10;8.07;;;2.90;99.90;;;;;;5051878;28;20200;-46
2021/01/15 02:47:47;;;;;;;10.75;7.82;;;2.90;99.90;;;;;;5051841;28;20310;-46
2021/01/15 02:50:15;;;;;;;16.85;8.52;;;3.20;99.90;;;;;;5051535;28;20196;-46
2021/01/15 02:52:43;;;;;;;11.90;7.93;;;2.70;99.90;;;;;;5051462;28;20199;-46
2021/01/15 02:55:11;;;;;;;14.25;9.40;;;2.90;99.90;;;;;;5051728;28;20195;-46
2021/01/15 02:57:38;;;;;;;9.85;7.60;;;2.90;99.90;;;;;;5051800;28;20211;-46
2021/01/15 03:00:06;;;;;;;12.40;9.00;;;2.90;99.90;;;;;;5051807;28;20602;-46
2021/01/15 03:02:47;;;;;;;11.88;7.47;;;3.20;99.90;;;;;;5051647;28;20222;-46
2021/01/15 03:05:19;;;;;;;11.30;8.18;;;2.60;99.90;;;;;;5051933;28;20354;-46
2021/01/15 03:07:46;;;;;;;10.52;7.03;;;2.90;99.90;;;;;;5051434;28;20319;-46
2021/01/15 03:10:14;;;;;;;15.23;8.38;;;2.60;99.90;;;;;;5051685;28;20200;-45
2021/01/15 03:12:43;;;;;;;9.85;7.85;;;2.70;99.90;;;;;;5051572;28;20184;-45
2021/01/15 03:15:14;;;;;;;13.60;8.30;;;3.00;99.90;;;;;;5052083;28;20711;-45
2021/01/15 03:17:44;;;;;;;10.73;7.50;;;3.10;99.90;;;;;;5051568;28;20208;-45
2021/01/15 03:20:11;;;;;;;10.52;7.28;;;3.00;99.90;;;;;;5052038;28;20255;-45
2021/01/15 03:22:44;;;;;;;11.48;8.32;;;2.80;99.90;;;;;;5051970;28;20414;-45
2021/01/15 03:25:12;;;;;;;11.20;7.45;;;3.10;99.90;;;;;;5050671;28;20204;-46
2021/01/15 03:27:44;;;;;;;10.27;7.90;;;3.10;99.90;;;;;;5051142;28;20235;-45
2021/01/15 03:30:12;;;;;;;13.02;7.97;;;3.00;99.90;;;;;;5050803;28;20199;-45
2021/01/15 03:32:39;;;;;;;10.93;6.93;;;3.20;99.90;;;;;;5051104;28;20238;-45
2021/01/15 03:35:07;;;;;;;9.35;6.78;;;2.80;99.90;;;;;;5050062;28;20528;-45
2021/01/15 03:37:34;;;;;;;10.43;8.38;;;3.00;99.90;;;;;;5051250;28;20223;-45
2021/01/15 03:40:01;;;;;;;9.95;7.28;;;3.10;99.90;;;;;;5051266;28;20660;-46
2021/01/15 03:42:28;;;;;;;10.98;7.45;;;2.90;99.90;;;;;;5052316;28;20278;-45
2021/01/15 03:44:54;;;;;;;11.50;7.65;;;2.90;99.90;;;;;;5053937;28;20656;-46
2021/01/15 03:47:21;;;;;;;10.18;7.35;;;2.90;99.90;;;;;;5053313;28;20219;-45
2021/01/15 03:49:47;;;;;;;12.32;8.13;;;3.00;99.90;;;;;;5053585;28;20578;-46
2021/01/15 03:52:14;;;;;;;10.18;7.63;;;2.20;99.90;;;;;;5054317;28;20199;-45
2021/01/15 03:54:40;;;;;;;8.68;7.43;;;2.70;99.90;;;;;;5054034;28;20192;-46
2021/01/15 03:57:08;;;;;;;8.98;7.30;;;2.90;99.90;;;;;;5054167;28;20212;-45
2021/01/15 03:59:34;;;;;;;9.35;6.80;;;2.70;99.90;;;;;;5052070;28;20211;-46
2021/01/15 04:02:01;;;;;;;9.10;7.28;;;3.00;99.90;;;;;;5051333;28;20677;-45
2021/01/15 04:04:27;;;;;;;10.68;8.07;;;2.70;99.90;;;;;;5054497;28;20588;-46
2021/01/15 04:06:54;;;;;;;10.10;7.05;;;2.70;99.90;;;;;;5057752;28;20224;-46
2021/01/15 04:09:20;;;;;;;10.25;7.28;;;2.70;99.90;;;;;;5058166;28;20230;-45
2021/01/15 04:11:47;;;;;;;10.38;7.85;;;2.70;99.90;;;;;;5057703;28;20237;-46
2021/01/15 04:14:14;;;;;;;11.05;7.72;;;2.80;99.90;;;;;;5057489;28;20207;-45
2021/01/15 04:16:40;;;;;;;10.30;7.85;;;2.60;99.90;;;;;;5058705;28;20216;-44
2021/01/15 04:19:07;;;;;;;10.68;7.88;;;3.40;99.90;;;;;;5057710;28;20249;-46
2021/01/15 04:21:33;;;;;;;10.45;7.60;;;2.90;99.90;;;;;;5054431;28;20299;-46
2021/01/15 04:24:00;;;;;;;9.70;7.15;;;2.70;99.90;;;;;;5054392;28;20216;-45
2021/01/15 04:26:26;;;;;;;12.35;7.80;;;2.90;99.90;;;;;;5054309;28;20357;-45
2021/01/15 04:28:53;;;;;;;12.68;7.95;;;2.80;99.90;;;;;;5054619;28;20203;-45
2021/01/15 04:31:20;;;;;;;9.27;6.35;;;3.00;99.90;;;;;;5054351;28;20573;-46
2021/01/15 04:33:47;;;;;;;10.90;7.70;;;2.70;99.90;;;;;;5054041;28;20541;-46
2021/01/15 04:36:13;;;;;;;11.65;7.82;;;2.70;99.90;;;;;;5054148;28;20226;-45
2021/01/15 04:38:41;;;;;;;10.50;7.47;;;2.30;99.90;;;;;;5054243;28;20198;-45
2021/01/15 04:41:08;;;;;;;10.75;7.97;;;2.80;99.90;;;;;;5054809;28;20253;-45
2021/01/15 04:43:36;;;;;;;8.40;7.10;;;2.70;99.90;;;;;;5054172;28;20215;-46
2021/01/15 04:46:04;;;;;;;9.85;7.32;;;2.90;99.90;;;;;;5054108;28;20215;-45
2021/01/15 04:48:33;;;;;;;8.90;6.75;;;2.50;99.90;;;;;;5052516;28;20196;-46
2021/01/15 04:51:02;;;;;;;10.27;7.18;;;2.60;99.90;;;;;;5054127;28;20196;-46
2021/01/15 04:53:30;;;;;;;8.45;6.78;;;2.80;99.90;;;;;;5053730;28;20184;-45
2021/01/15 04:55:59;;;;;;;8.48;6.20;;;2.60;99.90;;;;;;5053976;28;20583;-45
2021/01/15 04:58:30;;;;;;;7.68;6.22;;;2.40;99.90;;;;;;5054048;28;20665;-45
2021/01/15 05:00:58;;;;;;;11.00;6.57;;;2.40;99.90;;;;;;5053846;28;20266;-45
2021/01/15 05:03:25;;;;;;;11.52;6.95;;;2.70;99.90;;;;;;5053319;28;20220;-45
2021/01/15 05:05:59;;;;;;;7.95;6.47;;;3.30;99.90;;;;;;5053628;28;20700;-46
2021/01/15 05:08:29;;;;;;;9.57;7.15;;;2.40;99.90;;;;;;5053626;28;20225;-45
2021/01/15 05:10:56;;;;;;;9.18;7.18;;;2.70;99.90;;;;;;5053429;28;20219;-45
2021/01/15 05:13:23;;;;;;;9.70;6.80;;;2.70;99.90;;;;;;5059100;28;20192;-46
2021/01/15 05:15:51;;;;;;;6.18;5.03;;;2.10;99.90;;;;;;5052128;28;20200;-47
2021/01/15 05:18:19;;;;;;;7.47;5.43;;;2.60;99.90;;;;;;5054749;28;20188;-46
2021/01/15 05:20:47;;;;;;;11.85;7.50;;;2.70;99.90;;;;;;5053464;28;20565;-45
2021/01/15 05:23:16;;;;;;;11.20;7.38;;;2.50;99.90;;;;;;5053292;28;20258;-46
2021/01/15 05:25:44;;;;;;;7.50;6.63;;;2.60;99.90;;;;;;5053234;28;20192;-46
2021/01/15 05:28:11;;;;;;;7.85;6.47;;;2.40;99.90;;;;;;5053407;28;20202;-46
2021/01/15 05:30:40;;;;;;;8.38;6.28;;;2.70;99.90;;;;;;5053609;28;20197;-46
2021/01/15 05:33:12;;;;;;;7.85;6.75;;;1.80;99.90;;;;;;5053497;28;20192;-46
2021/01/15 05:35:41;;;;;;;7.57;6.07;;;2.40;99.90;;;;;;5053576;28;20198;-46
2021/01/15 05:38:07;;;;;;;8.93;6.85;;;2.50;99.90;;;;;;5052201;28;20211;-45
2021/01/15 05:40:39;;;;;;;10.45;7.22;;;2.70;99.90;;;;;;5053523;28;20196;-45
2021/01/15 05:43:06;;;;;;;9.63;6.63;;;2.40;99.90;;;;;;5052966;28;20208;-46
2021/01/15 05:45:34;;;;;;;12.10;8.95;;;2.50;99.90;;;;;;5052920;28;20212;-45
2021/01/15 05:48:00;;;;;;;8.63;6.88;;;2.70;99.90;;;;;;5053243;28;20192;-45
2021/01/15 05:50:40;;;;;;;8.80;6.75;;;2.40;99.90;;;;;;5052795;28;20204;-46
2021/01/15 05:53:07;;;;;;;13.05;7.70;;;2.90;99.90;;;;;;5052488;28;20237;-46
2021/01/15 05:55:34;;;;;;;8.77;6.90;;;2.60;99.90;;;;;;5051491;28;20393;-46
2021/01/15 05:58:10;;;;;;;8.75;7.45;;;2.20;99.90;;;;;;5052903;28;20191;-46
2021/01/15 06:00:40;;;;;;;7.82;6.93;;;2.60;99.90;;;;;;5053224;28;20195;-47
2021/01/15 06:03:09;;;;;;;10.88;7.30;;;2.60;99.90;;;;;;5052923;28;20269;-45
2021/01/15 06:05:36;;;;;;;11.25;8.35;;;2.70;99.90;;;;;;5053266;28;20226;-46
2021/01/15 06:08:03;;;;;;;12.00;8.45;;;2.50;99.90;;;;;;5053193;28;20194;-45
2021/01/15 06:10:43;;;;;;;9.38;7.20;;;2.60;99.90;;;;;;5053084;28;20669;-46
2021/01/15 06:13:10;;;;;;;10.52;7.00;;;2.60;99.90;;;;;;5052203;28;20188;-45
2021/01/15 06:15:47;;;;;;;11.98;7.97;;;2.60;99.90;;;;;;5052578;28;20207;-45
2021/01/15 06:18:18;;;;;;;10.43;7.15;;;2.60;99.90;;;;;;5052491;28;20199;-46
2021/01/15 06:20:46;;;;;;;9.10;7.22;;;2.50;99.90;;;;;;5052419;28;20223;-46
2021/01/15 06:23:14;;;;;;;11.52;7.40;;;2.60;99.90;;;;;;5052020;28;20212;-46
2021/01/15 06:25:58;;;;;;;8.95;6.95;;;2.70;99.90;;;;;;5052039;28;20188;-45
2021/01/15 06:28:34;;;;;;;8.18;6.72;;;2.70;99.90;;;;;;5052527;28;20191;-44
2021/01/15 06:31:04;;;;;;;7.78;6.35;;;2.60;99.90;;;;;;5052015;28;20206;-45
2021/01/15 06:33:31;;;;;;;8.23;7.00;;;2.50;99.90;;;;;;5052015;28;20196;-45
2021/01/15 06:35:57;;;;;;;8.02;6.30;;;2.80;99.90;;;;;;5050745;28;20212;-46
2021/01/15 06:38:29;;;;;;;8.80;7.10;;;2.30;99.90;;;;;;5051822;28;20200;-47
2021/01/15 06:40:56;;;;;;;10.32;7.90;;;2.60;99.90;;;;;;5052449;28;20196;-44
2021/01/15 06:43:25;;;;;;;9.52;7.07;;;2.30;99.90;;;;;;5053218;28;20684;-45
2021/01/15 06:45:54;;;;;;;10.80;8.27;;;2.50;99.90;;;;;;5051690;28;20662;-46
2021/01/15 06:48:23;;;;;;;8.82;7.43;;;2.50;99.90;;;;;;5052440;28;20204;-47
2021/01/15 06:50:51;;;;;;;9.70;7.70;;;2.60;99.90;;;;;;5051485;28;20202;-45
2021/01/15 06:53:23;;;;;;;10.70;6.85;;;2.40;99.90;;;;;;5052313;28;20196;-45
2021/01/15 06:55:51;;;;;;;8.32;7.10;;;2.60;99.90;;;;;;5052533;28;20216;-45
2021/01/15 06:58:26;;;;;;;7.45;6.63;;;2.40;99.90;;;;;;5052415;28;20257;-46
2021/01/15 07:01:16;;;;;;;10.50;6.97;;;2.50;99.90;;;;;;5052329;28;20290;-46
2021/01/15 07:04:18;;;;;;;10.68;5.97;;;2.40;99.90;;;;;;5052147;28;20255;-47
2021/01/15 07:07:20;;;;;;;12.98;8.05;;;2.40;99.90;;;;;;5052283;28;20265;-45
2021/01/15 07:09:47;;;;;;;12.73;6.78;;;2.40;99.90;;;;;;5049928;28;20207;-46
2021/01/15 07:12:15;;;;;;;9.13;6.28;;;2.40;99.90;;;;;;5051170;28;20204;-45
2021/01/15 07:14:47;;;;;;;7.38;6.25;;;2.70;99.90;;;;;;5052544;28;20195;-45
2021/01/15 07:17:18;;;;;;;8.32;6.50;;;2.50;99.90;;;;;;5056002;28;20250;-45
2021/01/15 07:19:45;;;;;;;7.25;5.80;;;2.50;99.90;;;;;;5058058;28;20196;-45
2021/01/15 07:22:13;;;;;;;10.18;6.78;;;2.70;99.90;;;;;;5053006;28;20249;-45
2021/01/15 07:24:42;;;;;;;9.73;6.20;;;1.80;99.90;;;;;;5057990;28;20238;-45
2021/01/15 07:27:10;;;;;;;12.30;9.40;;;2.40;99.90;;;;;;5060072;28;20219;-45
2021/01/15 07:29:48;;;;;;;9.68;6.70;;;2.50;99.90;;;;;;5059055;28;20203;-47
2021/01/15 07:32:21;;;;;;;11.50;7.25;;;2.50;99.90;;;;;;5060888;28;20207;-45
2021/01/15 07:34:50;;;;;;;9.43;6.88;;;2.40;99.90;;;;;;5061170;28;20241;-47
2021/01/15 07:37:22;;;;;;;9.60;6.72;;;2.50;99.90;;;;;;5061004;28;20212;-46
2021/01/15 07:40:17;;;;;;;8.48;5.88;;;2.30;99.90;;;;;;5061711;28;20207;-44
2021/01/15 07:42:49;;;;;;;8.45;6.30;;;2.40;99.90;;;;;;5057992;28;20229;-45
2021/01/15 07:45:52;;;;;;;7.95;6.45;;;2.40;99.90;;;;;;5059046;28;20203;-45
2021/01/15 07:48:19;;;;;;;8.68;7.72;;;2.40;99.90;;;;;;5053169;28;20325;-45
2021/01/15 07:50:48;;;;;;;10.27;6.25;;;2.50;99.90;;;;;;5056843;28;20192;-46
2021/01/15 07:53:20;;;;;;;7.80;6.00;;;1.60;99.90;;;;;;5056145;28;20203;-45
2021/01/15 07:55:49;;;;;;;7.80;6.63;;;2.20;99.90;;;;;;5056374;28;20271;-45
2021/01/15 07:58:17;;;;;;;7.10;6.18;;;2.20;99.90;;;;;;5057533;28;20200;-44
2021/01/15 08:00:44;;;;;;;8.15;6.32;;;2.30;99.90;;;;;;5055576;28;20672;-46
2021/01/15 08:03:12;;;;;;;6.97;5.43;;;2.40;99.90;;;;;;5054421;28;20220;-45
2021/01/15 08:05:40;;;;;;;7.45;6.28;;;2.30;99.90;;;;;;5055916;28;20290;-45
2021/01/15 08:08:12;;;;;;;7.85;6.65;;;2.60;99.90;;;;;;5056922;28;20224;-46
2021/01/15 08:10:45;;;;;;;8.68;7.57;;;2.30;99.90;;;;;;5056706;28;20196;-45
2021/01/15 08:13:23;;;;;;;10.90;6.90;;;2.50;99.90;;;;;;5055054;28;20188;-44
2021/01/15 08:15:51;;;;;;;7.72;6.70;;;2.50;99.90;;;;;;5055381;28;20204;-44
2021/01/15 08:18:18;;;;;;;9.23;7.22;;;2.30;99.90;;;;;;5055402;28;20203;-44
2021/01/15 08:20:51;;;;;;;8.00;6.57;;;2.50;99.90;;;;;;5055804;28;20203;-45
2021/01/15 08:23:22;;;;;;;9.70;6.70;;;3.00;99.90;;;;;;5055119;28;20266;-44
2021/01/15 08:26:04;;;;;;;10.70;6.95;;;2.40;99.90;;;;;;5055298;28;20203;-45
2021/01/15 08:28:33;;;;;;;8.88;7.82;;;2.30;99.90;;;;;;5037463;28;20212;-45
2021/01/15 08:31:06;;;;;;;9.80;8.60;;;2.40;99.90;;;;;;5055025;28;20192;-45
2021/01/15 08:33:33;;;;;;;9.43;7.30;;;2.50;99.90;;;;;;5054409;28;20198;-46
2021/01/15 08:36:02;;;;;;;10.35;8.10;;;2.40;99.90;;;;;;5054524;28;20207;-44
2021/01/15 08:38:33;;;;;;;8.30;7.40;;;2.10;99.90;;;;;;5055405;28;20204;-46
2021/01/15 08:41:01;;;;;;;13.82;7.65;;;2.40;99.90;;;;;;5055442;28;20203;-45
2021/01/15 08:43:30;;;;;;;8.02;6.65;;;2.50;99.90;;;;;;5054136;28;20693;-45
2021/01/15 08:46:00;;;;;;;8.90;7.07;;;1.90;99.90;;;;;;5054022;28;20655;-46
2021/01/15 08:48:31;;;;;;;8.75;7.40;;;2.50;99.90;;;;;;5054516;28;20231;-45
2021/01/15 08:51:09;;;;;;;9.05;7.30;;;2.30;99.90;;;;;;5054890;28;20203;-46
2021/01/15 08:54:03;;;;;;;12.95;8.23;;;2.70;99.90;;;;;;5054900;28;20195;-46
2021/01/15 08:56:43;;;;;;;9.38;6.82;;;2.30;99.90;;;;;;5055015;28;20208;-44
2021/01/15 08:59:11;;;;;;;9.35;7.32;;;2.70;99.90;;;;;;5055728;28;20191;-45
2021/01/15 09:01:41;;;;;;;16.45;7.95;;;2.50;99.90;;;;;;5055663;28;20568;-45
2021/01/15 09:04:09;;;;;;;12.75;7.38;;;2.10;99.90;;;;;;5054879;28;20219;-45
2021/01/15 09:06:38;;;;;;;9.20;7.78;;;2.30;99.90;;;;;;5052786;28;20230;-47
2021/01/15 09:09:06;;;;;;;11.02;8.30;;;2.20;99.90;;;;;;5052279;28;20226;-46
2021/01/15 09:11:35;;;;;;;8.63;7.10;;;2.30;99.90;;;;;;5055630;28;20251;-46
2021/01/15 09:14:03;;;;;;;10.02;7.80;;;2.40;99.90;;;;;;5057887;28;20615;-45
2021/01/15 09:16:30;;;;;;;8.88;6.90;;;2.20;99.90;;;;;;5058926;28;20215;-45
2021/01/15 09:19:04;;;;;;;9.77;7.85;;;2.10;99.90;;;;;;5057274;28;20215;-44
2021/01/15 09:21:31;;;;;;;8.07;7.25;;;1.70;99.90;;;;;;5055888;28;20659;-45
2021/01/15 09:23:58;;;;;;;13.63;9.18;;;2.20;99.90;;;;;;5054642;28;20269;-45
2021/01/15 09:26:25;;;;;;;10.95;7.97;;;2.40;99.90;;;;;;5054938;28;20668;-44
2021/01/15 09:28:52;;;;;;;19.10;9.10;;;2.20;99.90;;;;;;5054730;28;20200;-46
2021/01/15 09:31:18;;;;;;;11.18;8.55;;;2.20;99.90;;;;;;5055027;28;20273;-46
2021/01/15 09:33:48;;;;;;;17.50;9.02;;;2.40;99.90;;;;;;5055225;28;20220;-43
2021/01/15 09:36:21;;;;;;;16.45;10.35;;;2.10;99.90;;;;;;5055634;28;20281;-47
2021/01/15 09:38:48;;;;;;;12.45;9.23;;;2.30;99.90;;;;;;5054341;28;20542;-45
2021/01/15 09:41:16;;;;;;;10.68;7.90;;;2.10;99.90;;;;;;5054358;28;20203;-46
2021/01/15 09:43:43;;;;;;;9.07;7.05;;;2.30;99.90;;;;;;5056243;28;20595;-46
2021/01/15 09:46:21;;;;;;;8.93;8.02;;;2.20;99.90;;;;;;5058481;28;20219;-44
2021/01/15 09:48:48;;;;;;;12.45;9.05;;;2.40;99.90;;;;;;5059561;28;20199;-46
2021/01/15 09:51:15;;;;;;;9.95;7.40;;;2.20;99.90;;;;;;5056575;28;20195;-45
2021/01/15 09:53:42;;;;;;;10.10;7.60;;;2.00;99.90;;;;;;5057289;28;20196;-46
2021/01/15 09:56:08;;;;;;;10.00;7.88;;;1.90;99.90;;;;;;5057110;28;20222;-46
2021/01/15 09:58:37;;;;;;;11.95;9.27;;;1.90;99.90;;;;;;5052666;28;20602;-45
2021/01/15 10:01:04;;;;;;;14.60;8.48;;;2.20;99.90;;;;;;5052388;28;20207;-46
2021/01/15 10:03:31;;;;;;;8.73;6.80;;;2.00;99.90;;;;;;5053368;28;20588;-46
2021/01/15 10:05:57;;;;;;;11.18;8.13;;;2.10;99.90;;;;;;5053422;28;20219;-46
2021/01/15 10:08:26;;;;;;;10.73;7.72;;;1.90;99.90;;;;;;5052684;28;20695;-46
2021/01/15 10:10:53;;;;;;;10.10;7.60;;;1.60;99.90;;;;;;5052358;28;20204;-47
2021/01/15 10:13:20;;;;;;;11.10;8.73;;;1.40;99.90;;;;;;5052894;28;20237;-45
2021/01/15 10:15:48;;;;;;;13.38;9.20;;;2.20;99.90;;;;;;5052604;28;20199;-46
2021/01/15 10:18:15;;;;;;;11.80;9.35;;;2.10;99.90;;;;;;5052599;28;20687;-47
2021/01/15 10:20:45;;;;;;;13.05;9.13;;;2.40;99.90;;;;;;5052528;28;20275;-46
2021/01/15 10:23:12;;;;;;;11.45;8.35;;;2.40;99.90;;;;;;5052218;28;20208;-44
2021/01/15 10:25:40;;;;;;;10.63;8.27;;;2.20;99.90;;;;;;5052628;28;20474;-46
2021/01/15 10:28:07;;;;;;;12.57;9.32;;;1.90;99.90;;;;;;5052397;28;20211;-47
2021/01/15 10:30:33;;;;;;;8.75;7.50;;;2.00;99.90;;;;;;5052548;28;20802;-46
2021/01/15 10:33:01;;;;;;;15.02;8.43;;;1.90;99.90;;;;;;5051709;28;20235;-45
2021/01/15 10:35:27;;;;;;;9.02;6.78;;;2.00;99.90;;;;;;5052308;28;20200;-47
2021/01/15 10:37:54;;;;;;;8.05;6.15;;;1.90;99.90;;;;;;5052051;28;20331;-45
2021/01/15 10:40:20;;;;;;;11.02;7.10;;;2.10;99.90;;;;;;5052424;28;20192;-45
2021/01/15 10:42:47;;;;;;;10.20;8.18;;;1.60;99.90;;;;;;5052338;28;20199;-46
2021/01/15 10:45:14;;;;;;;9.23;7.40;;;2.10;99.90;;;;;;5052348;28;20229;-46
2021/01/15 10:47:41;;;;;;;10.55;8.27;;;2.30;99.90;;;;;;5052181;28;20236;-46
2021/01/15 10:50:12;;;;;;;8.35;7.43;;;2.10;99.90;;;;;;5052628;28;20657;-46
2021/01/15 10:52:39;;;;;;;11.40;6.93;;;2.30;99.90;;;;;;5051524;28;20238;-46
2021/01/15 10:55:07;;;;;;;5.95;5.18;;;2.20;99.90;;;;;;5052211;28;20271;-46
2021/01/15 10:57:33;;;;;;;10.05;7.40;;;2.20;99.90;;;;;;5052136;28;20241;-45
2021/01/15 11:00:00;;;;;;;8.88;6.15;;;2.30;99.90;;;;;;5052041;28;20691;-46
2021/01/15 11:02:27;;;;;;;9.55;7.80;;;1.50;99.90;;;;;;5051919;28;20592;-45
2021/01/15 11:04:53;;;;;;;8.50;7.00;;;2.00;99.90;;;;;;5051935;28;20226;-45
2021/01/15 11:07:21;;;;;;;12.75;7.38;;;2.00;99.90;;;;;;5051033;28;20216;-46
2021/01/15 11:09:47;;;;;;;11.88;9.00;;;1.40;99.90;;;;;;5052784;28;20211;-46
2021/01/15 11:12:14;;;;;;;9.70;6.65;;;2.10;99.90;;;;;;5053872;28;20356;-46
2021/01/15 11:14:40;;;;;;;10.02;6.75;;;2.00;99.90;;;;;;5055881;28;20253;-47
2021/01/15 11:17:07;;;;;;;8.82;5.85;;;2.20;99.90;;;;;;5056053;28;20297;-46
2021/01/15 11:19:33;;;;;;;10.50;7.28;;;1.40;99.90;;;;;;5055833;28;20192;-46
2021/01/15 11:22:00;;;;;;;6.97;6.28;;;2.20;99.90;;;;;;5056242;28;20210;-46
2021/01/15 11:24:28;;;;;;;15.13;7.22;;;1.80;99.90;;;;;;5055615;28;20219;-45
2021/01/15 11:26:55;;;;;;;8.48;7.07;;;2.10;99.90;;;;;;5055795;28;20219;-46
2021/01/15 11:29:22;;;;;;;8.10;6.68;;;2.20;99.90;;;;;;5055791;28;20229;-45
2021/01/15 11:31:48;;;;;;;8.40;7.22;;;2.10;99.90;;;;;;5056472;28;20206;-46
2021/01/15 11:34:16;;;;;;;9.25;6.85;;;2.00;99.90;;;;;;5057142;28;20196;-45
2021/01/15 11:36:43;;;;;;;8.57;7.00;;;2.00;99.90;;;;;;5055799;28;20208;-46
2021/01/15 11:39:11;;;;;;;8.90;7.15;;;2.20;99.90;;;;;;5055640;28;20222;-46
2021/01/15 11:41:39;;;;;;;11.77;7.63;;;2.20;99.90;;;;;;5055517;28;20795;-46
2021/01/15 11:44:06;;;;;;;8.15;6.70;;;1.80;99.90;;;;;;5056591;28;20303;-46
2021/01/15 11:46:33;;;;;;;10.18;8.40;;;1.90;99.90;;;;;;5056197;28;20424;-46
2021/01/15 11:49:00;;;;;;;11.18;8.45;;;1.90;99.90;;;;;;5056841;28;20222;-46
2021/01/15 11:51:27;;;;;;;8.82;7.75;;;1.80;99.90;;;;;;5057497;28;20192;-46
2021/01/15 11:53:53;;;;;;;8.80;7.40;;;2.00;99.90;;;;;;5056872;28;20323;-46
2021/01/15 11:56:21;;;;;;;10.43;7.55;;;2.40;99.90;;;;;;5055198;28;20207;-45
2021/01/15 11:58:49;;;;;;;9.98;7.95;;;1.90;99.90;;;;;;5055221;28;20569;-46
2021/01/15 12:01:16;;;;;;;9.10;7.53;;;2.00;99.90;;;;;;5055252;28;20222;-46
2021/01/15 12:03:42;;;;;;;8.70;7.55;;;2.60;99.90;;;;;;5055181;28;20281;-46
2021/01/15 12:06:11;;;;;;;10.25;7.40;;;1.80;99.90;;;;;;5054610;28;20227;-47
2021/01/15 12:08:39;;;;;;;11.10;7.55;;;2.00;99.90;;;;;;5055005;28;20610;-48
2021/01/15 12:11:07;;;;;;;10.25;7.50;;;1.80;99.90;;;;;;5054801;28;20192;-45
2021/01/15 12:13:34;;;;;;;8.77;7.50;;;2.00;99.90;;;;;;5055208;28;20223;-47
2021/01/15 12:16:02;;;;;;;9.45;7.88;;;1.80;99.90;;;;;;5054857;28;20223;-46
2021/01/15 12:18:29;;;;;;;8.75;7.60;;;1.90;99.90;;;;;;5055586;28;20226;-45
2021/01/15 12:20:56;;;;;;;10.23;7.28;;;1.90;99.90;;;;;;5054558;28;20668;-46
2021/01/15 12:23:23;;;;;;;8.13;6.63;;;1.90;99.90;;;;;;5053502;28;20557;-45
2021/01/15 12:25:49;;;;;;;10.63;7.30;;;1.90;99.90;;;;;;5055150;28;20235;-46
2021/01/15 12:28:17;;;;;;;10.68;7.78;;;1.80;99.90;;;;;;5055123;28;20204;-46
2021/01/15 12:30:45;;;;;;;8.55;6.68;;;2.30;99.90;;;;;;5055078;28;20782;-47
2021/01/15 12:33:14;;;;;;;8.10;5.90;;;1.90;99.90;;;;;;5054974;28;20206;-46
2021/01/15 12:35:42;;;;;;;8.05;6.35;;;1.80;99.90;;;;;;5054485;28;20648;-46
2021/01/15 12:38:10;;;;;;;8.27;6.70;;;1.80;99.90;;;;;;5054189;28;20573;-46
2021/01/15 12:40:38;;;;;;;8.90;7.10;;;1.80;99.90;;;;;;5052760;28;20299;-46
2021/01/15 12:43:06;;;;;;;8.48;6.72;;;1.80;99.90;;;;;;5054092;28;20196;-46
2021/01/15 12:45:33;;;;;;;10.52;6.72;;;1.70;99.90;;;;;;5053857;28;20672;-46
2021/01/15 12:48:00;;;;;;;7.78;6.20;;;2.20;99.90;;;;;;5054309;28;20199;-46
2021/01/15 12:50:28;;;;;;;6.65;5.55;;;2.10;99.90;;;;;;5054432;28;20228;-47
2021/01/15 12:52:55;;;;;;;8.45;7.03;;;1.80;99.90;;;;;;5053968;28;20258;-47
2021/01/15 12:55:22;;;;;;;10.30;6.18;;;1.90;99.90;;;;;;5054703;28;20493;-47
2021/01/15 12:57:49;;;;;;;7.25;6.28;;;1.90;99.90;;;;;;5054178;28;20637;-46
2021/01/15 13:00:17;;;;;;;8.82;6.68;;;1.60;99.90;;;;;;5054822;28;20490;-52
2021/01/15 13:02:44;;;;;;;10.95;7.22;;;1.60;99.90;;;;;;5054220;28;20192;-46